Time;durP1;ratioP1;P1;durP2;ratioP2;P2;SDS_P1;SDS_P2;PMS_P1;PMS_P2;Temp;Humidity;BMP_temperature;BMP_pressure;BME280_temperature;BME280_humidity;BME280_pressure;Samples;Min_cycle;Max_cycle;Signal;HPM_P1;HPM_P2
2021/09/13 00:01:57;;;;;;;13.40;9.93;;;14.10;94.90;;;;;;5022357;28;20036;-85
2021/09/13 00:04:22;;;;;;;12.00;8.27;;;14.10;95.50;;;;;;5036635;28;20029;-86
2021/09/13 00:06:48;;;;;;;9.05;8.15;;;14.10;95.20;;;;;;5032559;28;20543;-85
2021/09/13 00:09:13;;;;;;;8.63;7.65;;;14.20;95.00;;;;;;5021813;28;20112;-85
2021/09/13 00:11:39;;;;;;;11.40;9.85;;;14.10;94.80;;;;;;5022356;28;20488;-85
2021/09/13 00:14:04;;;;;;;8.85;6.55;;;14.10;94.90;;;;;;5020147;28;20502;-86
2021/09/13 00:16:30;;;;;;;12.15;7.47;;;14.10;94.90;;;;;;5036872;28;20442;-86
2021/09/13 00:18:55;;;;;;;11.60;8.82;;;14.20;95.10;;;;;;5038448;28;20048;-86
2021/09/13 00:21:21;;;;;;;9.40;7.78;;;14.20;95.30;;;;;;5040509;28;20123;-86
2021/09/13 00:23:47;;;;;;;11.95;9.60;;;14.20;95.40;;;;;;5039667;28;20063;-86
2021/09/13 00:26:12;;;;;;;12.65;9.88;;;14.20;95.40;;;;;;5019675;28;20031;-87
2021/09/13 00:28:38;;;;;;;14.95;10.43;;;14.10;95.30;;;;;;5023776;28;20021;-86
2021/09/13 00:31:04;;;;;;;14.93;9.80;;;14.10;95.90;;;;;;5037305;28;20097;-85
2021/09/13 00:33:31;;;;;;;12.73;8.00;;;14.10;95.70;;;;;;5021270;28;20488;-86
2021/09/13 00:35:56;;;;;;;11.05;8.73;;;14.10;95.70;;;;;;5037549;28;20029;-84
2021/09/13 00:38:22;;;;;;;10.65;7.63;;;14.10;95.50;;;;;;5033118;28;20040;-86
2021/09/13 00:40:47;;;;;;;13.55;9.50;;;14.20;95.90;;;;;;5019803;28;20063;-85
2021/09/13 00:43:13;;;;;;;11.02;8.77;;;14.20;96.00;;;;;;5020670;28;20661;-86
2021/09/13 00:45:38;;;;;;;19.00;10.85;;;14.10;95.80;;;;;;5036088;28;20502;-85
2021/09/13 00:48:04;;;;;;;19.33;12.77;;;14.10;96.30;;;;;;5038535;28;20048;-86
2021/09/13 00:50:30;;;;;;;17.20;12.40;;;13.80;97.40;;;;;;5042864;28;20028;-85
2021/09/13 00:52:55;;;;;;;17.35;12.52;;;13.70;96.00;;;;;;5023528;28;20565;-86
2021/09/13 00:55:21;;;;;;;18.95;13.25;;;13.70;97.80;;;;;;5026266;28;20086;-86
2021/09/13 00:57:48;;;;;;;21.27;13.65;;;13.50;98.30;;;;;;5044130;28;20029;-85
2021/09/13 01:00:14;;;;;;;16.73;13.60;;;13.30;99.10;;;;;;5035570;28;20108;-86
2021/09/13 01:02:40;;;;;;;15.38;13.27;;;13.40;98.90;;;;;;5023490;28;20058;-85
2021/09/13 01:05:06;;;;;;;19.08;13.50;;;13.40;99.00;;;;;;5039117;28;20037;-85
2021/09/13 01:07:31;;;;;;;15.23;11.88;;;13.30;98.30;;;;;;5037195;28;20063;-86
2021/09/13 01:09:58;;;;;;;10.23;8.68;;;13.40;96.50;;;;;;5041297;28;20037;-86
2021/09/13 01:12:24;;;;;;;10.35;7.97;;;13.50;96.00;;;;;;5020516;28;20127;-85
2021/09/13 01:14:49;;;;;;;11.70;7.65;;;13.70;96.10;;;;;;5023462;28;20163;-86
2021/09/13 01:17:15;;;;;;;9.57;7.90;;;13.80;96.30;;;;;;5021756;28;20037;-87
2021/09/13 01:19:40;;;;;;;9.30;7.80;;;13.60;95.90;;;;;;5023144;28;20040;-86
2021/09/13 01:22:06;;;;;;;10.98;7.38;;;13.60;96.20;;;;;;5026113;28;20028;-86
2021/09/13 01:24:32;;;;;;;10.93;7.60;;;13.60;95.90;;;;;;5024713;28;20538;-85
2021/09/13 01:27:01;;;;;;;11.02;8.10;;;13.50;96.00;;;;;;5039060;28;20096;-86
2021/09/13 01:29:27;;;;;;;12.02;8.48;;;13.50;96.20;;;;;;5041179;28;20029;-86
2021/09/13 01:31:53;;;;;;;14.02;8.50;;;13.60;96.30;;;;;;5024498;28;20033;-86
2021/09/13 01:34:19;;;;;;;12.25;10.20;;;13.50;96.40;;;;;;5039608;28;20032;-85
2021/09/13 01:36:44;;;;;;;13.00;11.10;;;13.40;95.90;;;;;;5023740;28;20096;-86
2021/09/13 01:39:10;;;;;;;15.43;11.25;;;13.30;96.60;;;;;;5035123;28;20021;-86
2021/09/13 01:41:36;;;;;;;12.07;10.55;;;13.20;97.20;;;;;;5024321;28;20032;-85
2021/09/13 01:44:02;;;;;;;17.75;12.55;;;13.20;96.40;;;;;;5020813;28;20033;-84
2021/09/13 01:46:28;;;;;;;17.02;12.00;;;13.20;97.40;;;;;;5038106;28;20037;-87
2021/09/13 01:48:53;;;;;;;17.05;13.65;;;13.10;97.80;;;;;;5023840;28;20027;-86
2021/09/13 01:51:19;;;;;;;18.80;13.82;;;13.00;97.50;;;;;;5042475;28;20071;-85
2021/09/13 01:53:46;;;;;;;11.95;9.65;;;12.90;98.40;;;;;;5023881;28;20033;-86
2021/09/13 01:56:12;;;;;;;11.50;9.50;;;12.90;96.70;;;;;;5022073;28;20025;-85
2021/09/13 01:58:37;;;;;;;14.60;11.05;;;13.00;96.30;;;;;;5027584;28;20400;-85
2021/09/13 02:01:03;;;;;;;11.23;9.90;;;12.90;96.10;;;;;;5049423;28;20037;-85
2021/09/13 02:03:28;;;;;;;11.43;10.15;;;12.80;96.80;;;;;;5039661;28;20070;-87
2021/09/13 02:05:54;;;;;;;15.68;11.30;;;12.70;96.90;;;;;;5040390;28;20028;-87
2021/09/13 02:08:20;;;;;;;13.65;10.25;;;12.50;98.30;;;;;;5035466;28;20115;-85
2021/09/13 02:10:45;;;;;;;15.40;10.82;;;12.50;98.00;;;;;;5036196;28;20040;-85
2021/09/13 02:13:11;;;;;;;12.45;10.90;;;12.50;98.80;;;;;;5051828;28;20028;-83
2021/09/13 02:15:36;;;;;;;16.52;11.75;;;12.40;99.90;;;;;;5022139;28;20086;-85
2021/09/13 02:18:02;;;;;;;21.35;13.90;;;12.40;99.90;;;;;;5035586;28;20036;-85
2021/09/13 02:20:28;;;;;;;11.80;9.25;;;12.40;99.90;;;;;;5014474;28;20029;-86
2021/09/13 02:22:53;;;;;;;12.40;9.50;;;12.50;98.30;;;;;;5035063;28;20171;-86
2021/09/13 02:25:20;;;;;;;10.45;9.13;;;12.60;97.20;;;;;;5021610;28;20039;-86
2021/09/13 02:27:46;;;;;;;13.55;9.90;;;12.50;98.10;;;;;;5037535;28;20028;-87
2021/09/13 02:30:12;;;;;;;12.07;9.88;;;12.40;99.30;;;;;;5025887;28;20388;-86
2021/09/13 02:32:37;;;;;;;13.52;10.23;;;12.30;99.90;;;;;;5023292;28;20040;-86
2021/09/13 02:35:07;;;;;;;12.05;9.75;;;12.30;99.10;;;;;;5037380;28;20074;-85
2021/09/13 02:37:33;;;;;;;10.65;8.93;;;12.50;97.00;;;;;;5025359;28;20039;-86
2021/09/13 02:39:59;;;;;;;50.95;10.23;;;12.40;96.70;;;;;;5022635;28;20751;-85
2021/09/13 02:42:24;;;;;;;17.42;9.95;;;12.50;96.60;;;;;;5023224;28;20048;-87
2021/09/13 02:44:50;;;;;;;13.60;9.48;;;12.40;98.50;;;;;;5019598;28;20025;-85
2021/09/13 02:47:15;;;;;;;15.70;10.32;;;12.20;99.90;;;;;;5026854;28;20120;-86
2021/09/13 02:49:41;;;;;;;11.50;10.38;;;12.10;99.90;;;;;;5041453;28;20048;-86
2021/09/13 02:52:06;;;;;;;16.38;10.57;;;12.10;99.90;;;;;;5038640;28;20040;-87
2021/09/13 02:54:32;;;;;;;14.55;11.02;;;12.00;99.90;;;;;;5023635;28;20383;-85
2021/09/13 02:56:57;;;;;;;13.88;11.57;;;12.00;99.90;;;;;;5037100;28;20033;-86
2021/09/13 02:59:23;;;;;;;19.10;14.95;;;12.00;99.90;;;;;;5023141;28;20111;-86
2021/09/13 03:01:49;;;;;;;16.02;10.48;;;11.90;99.90;;;;;;5017610;28;20052;-80
2021/09/13 03:04:15;;;;;;;17.42;12.63;;;11.90;99.90;;;;;;5020523;28;20028;-79
2021/09/13 03:06:41;;;;;;;13.55;11.30;;;12.10;99.90;;;;;;5036324;28;20016;-80
2021/09/13 03:09:06;;;;;;;14.27;12.48;;;12.10;99.10;;;;;;5033033;28;20108;-80
2021/09/13 03:11:32;;;;;;;13.30;11.38;;;12.10;99.90;;;;;;5033504;28;20024;-81
2021/09/13 03:13:57;;;;;;;13.90;10.50;;;12.00;99.90;;;;;;5033604;28;20425;-81
2021/09/13 03:16:24;;;;;;;9.25;8.30;;;11.90;98.70;;;;;;5018483;28;20656;-81
2021/09/13 03:18:56;;;;;;;8.10;7.07;;;12.00;97.70;;;;;;5014893;28;20029;-81
2021/09/13 03:21:22;;;;;;;8.55;7.22;;;12.20;97.40;;;;;;5018661;28;20025;-79
2021/09/13 03:23:47;;;;;;;11.38;7.88;;;12.10;97.10;;;;;;5032643;28;20036;-80
2021/09/13 03:26:13;;;;;;;8.07;6.90;;;12.20;96.90;;;;;;5016386;28;20016;-82
2021/09/13 03:28:38;;;;;;;9.77;7.55;;;12.10;96.80;;;;;;5017722;28;20058;-81
2021/09/13 03:31:04;;;;;;;10.07;7.07;;;12.10;96.90;;;;;;5016201;28;20029;-81
2021/09/13 03:33:30;;;;;;;13.45;10.18;;;12.00;96.40;;;;;;5016678;28;20151;-79
2021/09/13 03:35:55;;;;;;;13.70;9.43;;;11.90;98.00;;;;;;5026280;28;20036;-80
2021/09/13 03:38:21;;;;;;;13.30;11.32;;;11.80;97.70;;;;;;5016548;28;20032;-80
2021/09/13 03:40:47;;;;;;;14.68;11.77;;;11.80;99.80;;;;;;5039558;28;20039;-81
2021/09/13 03:43:12;;;;;;;14.00;11.10;;;11.70;99.50;;;;;;5032816;28;20040;-80
2021/09/13 03:45:38;;;;;;;13.52;10.80;;;11.80;98.50;;;;;;5048608;28;20028;-80
2021/09/13 03:48:04;;;;;;;17.13;10.65;;;11.80;98.20;;;;;;5033474;28;20081;-79
2021/09/13 03:50:29;;;;;;;11.48;9.18;;;11.70;97.80;;;;;;5050651;28;20032;-79
2021/09/13 03:52:55;;;;;;;14.50;11.45;;;11.70;97.20;;;;;;5017385;28;20693;-79
2021/09/13 03:55:22;;;;;;;14.23;10.32;;;11.70;97.70;;;;;;5017247;28;20028;-79
2021/09/13 03:57:47;;;;;;;18.52;11.15;;;11.70;97.40;;;;;;5013861;28;20396;-80
2021/09/13 04:00:14;;;;;;;16.83;11.43;;;11.60;97.50;;;;;;5032914;28;20033;-80
2021/09/13 04:02:49;;;;;;;16.63;11.93;;;11.60;98.50;;;;;;5019175;28;20495;-80
2021/09/13 04:05:26;;;;;;;14.77;10.57;;;11.50;99.10;;;;;;5050219;28;20123;-79
2021/09/13 04:10:25;;;;;;;12.57;9.82;;;11.50;98.30;;;;;;5035421;28;20032;-81
2021/09/13 04:12:51;;;;;;;12.50;10.25;;;11.60;97.60;;;;;;5018417;28;20039;-79
2021/09/13 04:15:16;;;;;;;15.73;11.23;;;11.50;97.40;;;;;;5031043;28;20425;-79
2021/09/13 04:17:42;;;;;;;15.18;12.13;;;11.50;98.30;;;;;;5018475;28;20493;-80
2021/09/13 04:20:08;;;;;;;17.60;13.60;;;11.40;99.90;;;;;;5035958;28;20033;-79
2021/09/13 04:22:34;;;;;;;19.55;13.25;;;11.20;99.90;;;;;;5036136;28;20154;-81
2021/09/13 04:25:00;;;;;;;15.93;12.13;;;11.20;99.90;;;;;;5034268;28;20037;-81
2021/09/13 04:27:27;;;;;;;15.80;13.00;;;11.10;99.90;;;;;;5051719;28;20033;-81
2021/09/13 04:29:53;;;;;;;18.50;12.55;;;11.10;99.90;;;;;;5036288;28;20028;-81
2021/09/13 04:32:18;;;;;;;20.10;12.80;;;11.00;99.90;;;;;;5035411;28;20041;-80
2021/09/13 04:34:44;;;;;;;22.25;12.85;;;10.90;99.90;;;;;;5035909;28;20021;-82
2021/09/13 04:37:09;;;;;;;19.25;13.18;;;10.90;99.90;;;;;;5044017;28;20119;-81
2021/09/13 04:39:35;;;;;;;17.73;13.45;;;11.00;99.90;;;;;;5020402;28;20033;-81
2021/09/13 04:42:00;;;;;;;23.30;14.43;;;11.00;99.90;;;;;;5020704;28;20031;-81
2021/09/13 04:44:26;;;;;;;16.75;13.52;;;11.00;99.90;;;;;;5037864;28;20379;-81
2021/09/13 04:46:52;;;;;;;14.98;10.88;;;11.00;99.90;;;;;;5022305;28;20032;-81
2021/09/13 04:49:17;;;;;;;20.70;13.85;;;11.00;99.90;;;;;;5054163;28;20025;-80
2021/09/13 04:51:46;;;;;;;16.80;12.77;;;11.10;99.50;;;;;;5052022;28;20087;-80
2021/09/13 04:54:11;;;;;;;15.38;10.40;;;11.10;99.60;;;;;;5036399;28;20043;-79
2021/09/13 04:56:38;;;;;;;10.32;8.57;;;11.20;98.60;;;;;;5034600;28;20032;-82
2021/09/13 04:59:03;;;;;;;14.13;9.52;;;11.20;98.00;;;;;;5022158;28;20032;-81
2021/09/13 05:01:29;;;;;;;17.15;9.55;;;11.10;98.10;;;;;;5009154;28;20116;-81
2021/09/13 05:03:55;;;;;;;12.02;9.75;;;11.00;98.20;;;;;;5014916;28;20059;-81
2021/09/13 05:06:21;;;;;;;10.60;9.35;;;10.90;99.80;;;;;;5034135;28;20139;-80
2021/09/13 05:08:46;;;;;;;11.68;9.18;;;10.80;98.90;;;;;;5019834;28;20028;-80
2021/09/13 05:11:12;;;;;;;10.18;7.82;;;11.00;98.30;;;;;;5036562;28;20027;-81
2021/09/13 05:13:37;;;;;;;13.10;10.13;;;11.10;98.00;;;;;;5035823;28;20036;-81
2021/09/13 05:16:04;;;;;;;13.27;9.23;;;11.20;98.40;;;;;;5045944;28;20021;-82
2021/09/13 05:18:30;;;;;;;16.10;11.40;;;11.30;98.80;;;;;;5018713;28;20041;-84
2021/09/13 05:20:55;;;;;;;10.80;8.88;;;11.20;98.30;;;;;;5001485;28;20033;-82
2021/09/13 05:23:21;;;;;;;12.18;8.00;;;11.00;98.10;;;;;;5009115;28;20107;-82
2021/09/13 05:25:50;;;;;;;15.85;10.25;;;11.20;98.00;;;;;;5016511;28;20511;-79
2021/09/13 05:28:19;;;;;;;11.70;8.52;;;11.30;98.20;;;;;;5050976;28;20037;-81
2021/09/13 05:30:44;;;;;;;14.38;11.10;;;11.20;97.80;;;;;;5026245;28;20032;-79
2021/09/13 05:33:15;;;;;;;16.52;9.07;;;11.10;99.20;;;;;;5034700;28;20052;-80
2021/09/13 05:35:40;;;;;;;17.85;11.75;;;11.00;98.20;;;;;;5033218;28;20027;-79
2021/09/13 05:38:09;;;;;;;18.38;11.98;;;11.00;98.40;;;;;;5032185;28;20376;-79
2021/09/13 05:40:35;;;;;;;18.92;13.18;;;10.80;99.90;;;;;;5028522;28;20175;-80
2021/09/13 05:43:04;;;;;;;21.40;15.50;;;10.80;99.90;;;;;;5022213;28;20032;-80
2021/09/13 05:45:38;;;;;;;19.40;12.88;;;10.70;99.90;;;;;;5048266;28;20041;-81
2021/09/13 05:48:04;;;;;;;17.40;12.77;;;10.70;99.90;;;;;;5035294;28;20125;-79
2021/09/13 05:50:29;;;;;;;19.52;13.02;;;10.70;99.40;;;;;;5017659;28;20036;-79
2021/09/13 05:52:56;;;;;;;22.38;14.00;;;10.90;99.30;;;;;;5038836;28;20040;-81
2021/09/13 05:55:21;;;;;;;21.30;12.57;;;10.80;99.90;;;;;;5034449;28;20521;-80
2021/09/13 05:57:47;;;;;;;18.08;11.98;;;10.80;99.10;;;;;;5031998;28;20032;-79
2021/09/13 06:00:13;;;;;;;16.15;12.20;;;10.90;98.50;;;;;;5035466;28;20055;-79
2021/09/13 06:02:40;;;;;;;17.75;13.00;;;11.00;98.50;;;;;;5030907;28;20037;-80
2021/09/13 06:05:07;;;;;;;19.85;13.75;;;11.00;98.70;;;;;;5034143;28;20032;-80
2021/09/13 06:07:33;;;;;;;24.48;14.40;;;11.00;99.80;;;;;;5045179;28;20033;-80
2021/09/13 06:10:00;;;;;;;28.75;15.38;;;11.10;99.90;;;;;;5049815;28;20535;-82
2021/09/13 06:12:31;;;;;;;33.72;18.00;;;11.00;99.90;;;;;;5026292;28;20067;-79
2021/09/13 06:14:58;;;;;;;34.00;15.90;;;11.10;99.90;;;;;;5016177;28;20032;-80
2021/09/13 06:17:24;;;;;;;24.88;15.93;;;11.20;99.90;;;;;;5048451;28;20111;-80
2021/09/13 06:19:50;;;;;;;23.23;13.63;;;11.30;99.60;;;;;;5031853;28;20120;-80
2021/09/13 06:22:16;;;;;;;17.15;12.30;;;11.40;98.90;;;;;;5022069;28;20036;-80
2021/09/13 06:24:41;;;;;;;27.33;16.52;;;11.70;98.70;;;;;;5016698;28;20044;-80
2021/09/13 06:27:07;;;;;;;26.92;16.15;;;11.60;99.90;;;;;;5033606;28;20055;-81
2021/09/13 06:29:35;;;;;;;19.20;13.13;;;11.70;99.60;;;;;;5018853;28;20083;-81
2021/09/13 06:32:01;;;;;;;19.63;12.90;;;11.80;98.80;;;;;;5015901;28;20025;-79
2021/09/13 06:34:29;;;;;;;30.33;17.65;;;11.90;98.50;;;;;;5041911;28;20545;-80
2021/09/13 06:36:54;;;;;;;37.70;19.90;;;12.00;99.00;;;;;;5024606;28;20025;-79
2021/09/13 06:39:28;;;;;;;27.85;17.70;;;12.00;99.90;;;;;;5051154;28;20028;-81
2021/09/13 06:41:54;;;;;;;26.00;16.98;;;12.00;99.50;;;;;;5014331;28;20545;-80
2021/09/13 06:44:23;;;;;;;34.92;19.88;;;12.10;99.00;;;;;;5035143;28;20036;-79
2021/09/13 06:47:10;;;;;;;29.52;19.15;;;12.30;99.90;;;;;;5018543;28;20032;-80
2021/09/13 06:49:36;;;;;;;38.40;21.48;;;12.30;99.90;;;;;;5018850;28;20040;-82
2021/09/13 06:52:17;;;;;;;39.40;22.65;;;12.30;99.90;;;;;;5049692;28;20579;-80
2021/09/13 06:54:42;;;;;;;38.75;21.52;;;12.50;99.30;;;;;;5034165;28;20032;-80
2021/09/13 06:57:08;;;;;;;39.70;23.50;;;12.50;99.70;;;;;;5023810;28;20396;-80
2021/09/13 06:59:37;;;;;;;49.05;25.20;;;12.60;99.80;;;;;;5026198;28;20079;-81
2021/09/13 07:02:02;;;;;;;30.40;19.08;;;12.60;99.70;;;;;;5017389;28;20078;-81
2021/09/13 07:04:39;;;;;;;35.63;18.70;;;12.80;99.30;;;;;;5016934;28;20040;-81
2021/09/13 07:07:04;;;;;;;31.40;20.17;;;13.00;99.30;;;;;;5042738;28;20032;-81
2021/09/13 07:09:30;;;;;;;20.63;14.63;;;13.20;98.90;;;;;;5017182;28;20040;-79
2021/09/13 07:12:02;;;;;;;18.60;13.80;;;13.20;98.80;;;;;;5050299;28;20112;-81
2021/09/13 07:14:28;;;;;;;18.15;11.98;;;13.50;98.70;;;;;;5014699;28;20574;-79
2021/09/13 07:16:55;;;;;;;26.10;18.60;;;13.60;98.60;;;;;;5048567;28;20021;-81
2021/09/13 07:19:20;;;;;;;30.55;20.25;;;13.60;99.00;;;;;;5035324;28;20112;-82
2021/09/13 07:21:46;;;;;;;20.48;14.32;;;13.80;99.60;;;;;;5007055;28;20568;-79
2021/09/13 07:24:12;;;;;;;33.30;21.88;;;13.80;98.80;;;;;;5050148;28;20035;-79
2021/09/13 07:26:44;;;;;;;31.10;22.05;;;13.90;99.90;;;;;;5019023;28;20079;-80
2021/09/13 07:29:09;;;;;;;28.15;18.00;;;13.80;98.70;;;;;;5035270;28;20044;-80
2021/09/13 07:31:37;;;;;;;20.27;13.43;;;13.90;99.90;;;;;;5036746;28;20112;-82
2021/09/13 07:34:02;;;;;;;22.75;15.95;;;14.10;98.90;;;;;;5010076;28;20029;-78
2021/09/13 07:36:34;;;;;;;20.48;14.23;;;14.30;99.00;;;;;;5028861;28;20111;-78
2021/09/13 07:38:59;;;;;;;19.05;11.48;;;14.60;98.80;;;;;;5017811;28;20024;-79
2021/09/13 07:41:25;;;;;;;13.38;10.18;;;14.90;97.50;;;;;;5039581;28;20480;-79
2021/09/13 07:43:51;;;;;;;31.73;22.80;;;14.90;98.30;;;;;;5020240;28;20021;-81
2021/09/13 07:46:26;;;;;;;13.52;12.10;;;14.80;98.10;;;;;;5044900;28;20036;-80
2021/09/13 07:48:53;;;;;;;26.95;18.88;;;14.80;98.20;;;;;;5007643;28;20472;-80
2021/09/13 07:51:19;;;;;;;31.15;19.85;;;15.00;98.40;;;;;;5013545;28;20037;-80
2021/09/13 07:53:45;;;;;;;33.22;21.73;;;15.20;99.40;;;;;;5015340;28;20061;-81
2021/09/13 07:56:13;;;;;;;17.33;12.30;;;15.10;99.50;;;;;;5019391;28;20445;-78
2021/09/13 07:58:39;;;;;;;32.80;21.55;;;15.40;99.10;;;;;;5032921;28;20040;-79
2021/09/13 08:01:10;;;;;;;20.55;14.13;;;15.30;99.30;;;;;;5028285;28;20029;-83
2021/09/13 08:03:36;;;;;;;28.25;16.92;;;15.40;98.70;;;;;;5030522;28;20039;-81
2021/09/13 08:06:10;;;;;;;15.88;10.93;;;15.50;99.40;;;;;;5029396;28;20033;-79
2021/09/13 08:08:36;;;;;;;18.30;13.23;;;15.60;98.00;;;;;;5002227;28;20036;-80
2021/09/13 08:11:02;;;;;;;23.00;14.85;;;15.50;99.30;;;;;;5049437;28;20025;-81
2021/09/13 08:13:28;;;;;;;25.58;15.00;;;15.90;99.60;;;;;;5035174;28;20028;-80
2021/09/13 08:15:53;;;;;;;21.17;12.35;;;15.80;99.30;;;;;;5017430;28;20044;-79
2021/09/13 08:18:20;;;;;;;18.27;10.90;;;15.80;99.20;;;;;;5031234;28;20492;-81
2021/09/13 08:20:46;;;;;;;11.35;8.43;;;16.40;98.80;;;;;;5034360;28;20048;-81
2021/09/13 08:23:13;;;;;;;22.48;13.27;;;16.70;99.00;;;;;;5028602;28;20511;-81
2021/09/13 08:25:38;;;;;;;15.95;9.25;;;16.80;98.10;;;;;;5010578;28;20100;-80
2021/09/13 08:28:05;;;;;;;14.88;9.75;;;16.60;99.10;;;;;;5006267;28;20040;-80
2021/09/13 08:30:31;;;;;;;19.45;11.63;;;16.30;98.90;;;;;;5015267;28;20519;-81
2021/09/13 08:32:56;;;;;;;24.45;12.98;;;16.20;99.40;;;;;;5006398;28;20033;-80
2021/09/13 08:35:22;;;;;;;18.58;14.00;;;16.20;99.90;;;;;;5007060;28;20043;-80
2021/09/13 08:37:48;;;;;;;20.73;13.20;;;16.90;99.20;;;;;;5015085;28;20041;-81
2021/09/13 08:40:13;;;;;;;14.05;9.30;;;16.70;99.60;;;;;;5029535;28;20025;-82
2021/09/13 08:42:46;;;;;;;14.25;10.13;;;17.00;99.60;;;;;;5042452;28;20052;-81
2021/09/13 08:45:19;;;;;;;24.88;13.35;;;17.50;98.60;;;;;;5030077;28;20448;-80
2021/09/13 08:47:56;;;;;;;15.88;7.78;;;17.90;97.40;;;;;;5015951;28;20477;-82
2021/09/13 08:50:33;;;;;;;12.93;8.43;;;17.90;98.00;;;;;;5005712;28;20021;-80
2021/09/13 08:53:00;;;;;;;12.65;7.95;;;18.00;97.90;;;;;;5033422;28;20071;-81
2021/09/13 08:55:26;;;;;;;12.02;5.90;;;17.40;98.70;;;;;;5016388;28;20436;-82
2021/09/13 08:57:52;;;;;;;11.65;5.18;;;17.50;98.70;;;;;;5023972;28;20063;-80
2021/09/13 09:00:19;;;;;;;8.13;5.13;;;18.00;99.20;;;;;;5036001;28;20444;-79
2021/09/13 09:02:45;;;;;;;10.55;7.35;;;18.40;98.00;;;;;;5030555;28;20029;-80
2021/09/13 09:05:11;;;;;;;11.07;5.68;;;18.30;97.80;;;;;;5030163;28;20107;-80
2021/09/13 09:07:50;;;;;;;7.60;4.70;;;18.10;98.60;;;;;;5038284;28;20381;-79
2021/09/13 09:10:23;;;;;;;8.18;4.50;;;19.50;96.30;;;;;;5014057;28;20041;-81
2021/09/13 09:13:12;;;;;;;8.65;4.13;;;19.50;95.50;;;;;;5037828;28;20538;-81
2021/09/13 09:15:58;;;;;;;13.38;3.97;;;19.70;96.00;;;;;;5020982;28;20025;-80
2021/09/13 09:18:24;;;;;;;6.22;3.90;;;20.20;95.40;;;;;;5036050;28;20056;-80
2021/09/13 09:20:50;;;;;;;8.18;5.40;;;21.10;93.90;;;;;;5022628;28;20142;-79
2021/09/13 09:23:15;;;;;;;6.78;3.67;;;21.10;95.00;;;;;;5020121;28;20041;-82
2021/09/13 09:25:44;;;;;;;9.77;5.13;;;20.80;94.30;;;;;;5038145;28;20032;-81
2021/09/13 09:28:14;;;;;;;7.13;5.18;;;21.20;93.50;;;;;;5019040;28;20040;-81
2021/09/13 09:30:45;;;;;;;9.18;4.13;;;21.30;93.50;;;;;;5016923;28;20036;-79
2021/09/13 09:33:22;;;;;;;4.97;3.60;;;21.00;94.20;;;;;;5018374;28;20045;-80
2021/09/13 09:35:55;;;;;;;8.32;4.78;;;21.50;93.40;;;;;;5035740;28;20361;-81
2021/09/13 09:38:30;;;;;;;7.00;4.65;;;22.00;92.20;;;;;;5029034;28;20533;-80
2021/09/13 09:41:09;;;;;;;7.65;3.63;;;21.30;94.10;;;;;;5070963;28;20056;-81
2021/09/13 09:43:55;;;;;;;5.28;3.63;;;21.80;92.70;;;;;;5035336;28;20032;-79
2021/09/13 09:46:21;;;;;;;7.22;4.32;;;21.90;92.50;;;;;;5044312;28;20036;-80
2021/09/13 09:48:47;;;;;;;10.65;5.10;;;21.10;93.80;;;;;;5025417;28;20032;-78
2021/09/13 09:51:30;;;;;;;6.35;3.90;;;21.10;95.50;;;;;;5023988;28;20029;-79
2021/09/13 09:53:56;;;;;;;7.68;3.65;;;21.00;95.00;;;;;;5016815;28;20167;-80
2021/09/13 09:56:25;;;;;;;8.93;3.40;;;21.10;95.00;;;;;;5020938;28;20029;-82
2021/09/13 09:59:05;;;;;;;5.40;3.17;;;21.80;93.70;;;;;;5032264;28;20033;-82
2021/09/13 10:01:32;;;;;;;7.30;3.92;;;22.00;93.60;;;;;;5030457;28;20037;-81
2021/09/13 10:04:13;;;;;;;5.97;3.70;;;21.90;94.10;;;;;;5032684;28;20035;-81
2021/09/13 10:06:40;;;;;;;6.45;3.65;;;21.50;94.60;;;;;;5031237;28;20451;-80
2021/09/13 10:09:05;;;;;;;6.13;3.63;;;21.90;93.80;;;;;;5051091;28;20028;-79
2021/09/13 10:11:31;;;;;;;4.95;3.05;;;22.20;94.20;;;;;;5018539;28;20124;-84
2021/09/13 10:14:06;;;;;;;5.18;2.90;;;23.50;91.10;;;;;;5016596;28;20062;-82
2021/09/13 10:16:32;;;;;;;5.47;2.80;;;23.10;91.70;;;;;;4665059;28;10000895;-81
2021/09/13 10:18:58;;;;;;;6.82;3.72;;;22.90;93.30;;;;;;5019974;28;20510;-82
2021/09/13 10:21:26;;;;;;;6.63;3.95;;;22.70;93.20;;;;;;5021033;28;20373;-82
2021/09/13 10:23:52;;;;;;;6.03;3.55;;;22.50;94.60;;;;;;5021063;28;20519;-83
2021/09/13 10:26:17;;;;;;;7.18;3.55;;;22.20;94.80;;;;;;5015605;28;20072;-81
2021/09/13 10:29:07;;;;;;;5.65;2.90;;;22.50;94.60;;;;;;4994796;28;20039;-81
2021/09/13 10:31:41;;;;;;;7.20;2.83;;;22.30;94.10;;;;;;5049835;28;20044;-81
2021/09/13 10:34:32;;;;;;;3.78;2.45;;;23.30;92.50;;;;;;5061344;28;20487;-82
2021/09/13 10:37:18;;;;;;;7.43;3.03;;;23.70;91.70;;;;;;5017133;28;20035;-81
2021/09/13 10:40:17;;;;;;;4.63;2.70;;;23.20;94.20;;;;;;5031379;28;20028;-82
2021/09/13 10:42:56;;;;;;;5.28;2.83;;;23.00;93.00;;;;;;5034990;28;20036;-83
2021/09/13 10:45:37;;;;;;;5.53;3.05;;;24.90;90.00;;;;;;5027911;28;20594;-82
2021/09/13 10:48:11;;;;;;;4.85;2.35;;;24.00;91.80;;;;;;5065694;28;20059;-82
2021/09/13 10:50:48;;;;;;;3.40;2.42;;;24.60;88.90;;;;;;5024676;28;20033;-81
2021/09/13 10:53:16;;;;;;;4.30;2.50;;;24.10;92.40;;;;;;5017578;28;20039;-82
2021/09/13 10:55:43;;;;;;;5.38;2.42;;;23.50;93.10;;;;;;5049793;28;20021;-81
2021/09/13 10:58:12;;;;;;;5.60;2.60;;;23.70;93.80;;;;;;5014534;28;20034;-82
2021/09/13 11:00:41;;;;;;;3.67;2.25;;;23.40;94.20;;;;;;5019255;28;20043;-82
2021/09/13 11:08:48;;;;;;;3.53;2.38;;;23.20;93.20;;;;;;5068814;28;20028;-83
2021/09/13 11:11:13;;;;;;;4.25;2.05;;;23.70;92.40;;;;;;5030824;28;20116;-81
2021/09/13 11:13:41;;;;;;;4.13;2.72;;;24.20;91.60;;;;;;5049608;28;20219;-83
2021/09/13 11:16:21;;;;;;;3.50;2.53;;;23.90;93.40;;;;;;5012040;28;20083;-83
2021/09/13 11:18:47;;;;;;;3.42;2.13;;;23.60;94.30;;;;;;5023840;28;20033;-83
2021/09/13 11:21:24;;;;;;;3.13;2.00;;;24.10;92.50;;;;;;5016028;28;20037;-83
2021/09/13 11:24:00;;;;;;;3.67;2.10;;;24.40;91.00;;;;;;5048771;28;20036;-84
2021/09/13 11:26:32;;;;;;;4.10;2.83;;;24.70;90.40;;;;;;5018120;28;20033;-82
2021/09/13 11:29:09;;;;;;;5.70;2.63;;;24.80;92.40;;;;;;5032980;28;20029;-83
2021/09/13 11:31:38;;;;;;;3.35;2.33;;;24.30;93.40;;;;;;5033559;28;20024;-82
2021/09/13 11:34:06;;;;;;;6.28;2.58;;;24.30;93.60;;;;;;5029583;28;20060;-84
2021/09/13 11:36:33;;;;;;;3.47;2.38;;;24.30;94.00;;;;;;5015637;28;20035;-83
2021/09/13 11:39:07;;;;;;;7.60;3.15;;;24.50;93.40;;;;;;5029412;28;20029;-83
2021/09/13 11:41:33;;;;;;;4.38;3.33;;;24.40;93.40;;;;;;5032541;28;20028;-82
2021/09/13 11:44:08;;;;;;;3.03;2.55;;;24.30;93.90;;;;;;5007122;28;20043;-83
2021/09/13 11:46:59;;;;;;;4.47;2.53;;;24.40;91.90;;;;;;5014806;28;20105;-83
2021/09/13 11:49:30;;;;;;;4.53;2.40;;;25.00;90.90;;;;;;5033076;28;21898;-83
2021/09/13 11:52:14;;;;;;;4.38;2.28;;;25.40;87.20;;;;;;5008792;28;20060;-83
2021/09/13 11:54:49;;;;;;;5.53;3.42;;;25.90;89.30;;;;;;5025562;28;20032;-84
2021/09/13 11:57:23;;;;;;;3.70;2.67;;;25.40;92.20;;;;;;5020796;28;20529;-83
2021/09/13 12:00:16;;;;;;;4.70;2.05;;;25.00;91.70;;;;;;5035069;28;20258;-85
2021/09/13 12:02:48;;;;;;;4.65;2.80;;;25.80;87.00;;;;;;5038104;28;20099;-83
2021/09/13 12:05:25;;;;;;;4.68;3.10;;;26.50;89.90;;;;;;5016744;28;20028;-83
2021/09/13 12:07:52;;;;;;;2.95;2.22;;;26.20;90.20;;;;;;5019342;28;20162;-82
2021/09/13 12:10:25;;;;;;;3.00;2.30;;;25.70;90.00;;;;;;5017732;28;20025;-81
2021/09/13 12:12:52;;;;;;;6.25;3.10;;;25.90;91.30;;;;;;5031742;28;20115;-84
2021/09/13 12:15:19;;;;;;;5.63;2.88;;;25.70;91.70;;;;;;5017284;28;20395;-83
2021/09/13 12:17:46;;;;;;;6.38;3.08;;;25.50;91.40;;;;;;5017247;28;20035;-83
2021/09/13 12:20:21;;;;;;;4.18;2.13;;;25.40;90.90;;;;;;5050490;28;20033;-84
2021/09/13 12:22:56;;;;;;;8.05;3.70;;;25.90;87.90;;;;;;5034066;28;20107;-83
2021/09/13 12:25:26;;;;;;;4.90;2.85;;;26.10;90.30;;;;;;5029007;28;20036;-83
2021/09/13 12:27:53;;;;;;;7.75;3.80;;;25.80;90.00;;;;;;5032436;28;20388;-83
2021/09/13 12:30:32;;;;;;;4.90;3.25;;;25.60;89.30;;;;;;5017716;28;20029;-84
2021/09/13 12:33:09;;;;;;;3.78;2.88;;;25.60;89.00;;;;;;5017625;28;20041;-84
2021/09/13 12:35:42;;;;;;;6.32;2.83;;;25.70;88.70;;;;;;5017230;28;20109;-86
2021/09/13 12:38:12;;;;;;;4.57;3.70;;;25.70;88.80;;;;;;5030262;28;20056;-85
2021/09/13 12:40:53;;;;;;;6.00;3.22;;;25.70;87.60;;;;;;5035498;28;20041;-85
2021/09/13 12:43:20;;;;;;;5.20;3.53;;;25.70;87.60;;;;;;5030366;28;20461;-86
2021/09/13 12:45:46;;;;;;;9.55;3.42;;;25.80;88.30;;;;;;5017930;28;20028;-85
2021/09/13 12:48:27;;;;;;;6.93;3.70;;;25.70;86.20;;;;;;5024096;28;20032;-84
2021/09/13 12:50:54;;;;;;;5.82;3.35;;;25.70;87.50;;;;;;5020755;28;20565;-84